createdAt,value
2022-11-01T00:07:33.723Z,93432.63
2022-11-01T00:17:39.992Z,93452.88
2022-11-01T00:27:46.289Z,93430.44
2022-11-01T00:37:52.570Z,93414.41
2022-11-01T00:47:58.951Z,93409.47
2022-11-01T00:58:05.056Z,93380.72
2022-11-01T01:08:11.755Z,93400.66
2022-11-01T01:18:18.063Z,93419.69
2022-11-01T01:28:24.318Z,93455.22
2022-11-01T01:38:31.170Z,93437.06
2022-11-01T01:48:38.271Z,93366.94
2022-11-01T01:58:49.449Z,93301.91
2022-11-01T02:08:58.093Z,93231.47
2022-11-01T02:19:23.127Z,93129.75
2022-11-01T02:29:46.819Z,93090.66
2022-11-01T02:39:55.507Z,93047.22
2022-11-01T02:50:07.933Z,93063.06
2022-11-01T03:00:24.647Z,93011.72
2022-11-01T03:11:12.783Z,92965.72
2022-11-01T03:21:23.659Z,92918.34
2022-11-01T03:31:32.940Z,92917.53
2022-11-01T03:41:43.640Z,92891.72
2022-11-01T03:51:50.168Z,92862.69
2022-11-01T04:01:56.622Z,92856.72
2022-11-01T04:12:02.956Z,92855.53
2022-11-01T04:22:09.261Z,92863.69
2022-11-01T04:32:15.597Z,92906.09
2022-11-01T04:42:21.889Z,92920.00
2022-11-01T04:52:28.421Z,92937.72
2022-11-01T05:02:34.736Z,92948.25
2022-11-01T05:12:41.074Z,92964.97
2022-11-01T05:22:47.356Z,92994.84
2022-11-01T05:33:00.951Z,93051.69
2022-11-01T05:43:07.233Z,93052.06
2022-11-01T05:53:13.584Z,93092.22
2022-11-01T06:03:19.885Z,93108.91
2022-11-01T06:13:26.188Z,93119.50
2022-11-01T06:23:32.481Z,93096.13
2022-11-01T06:33:39.217Z,93110.47
2022-11-01T06:43:45.541Z,93098.38
2022-11-01T06:53:51.805Z,93102.38
2022-11-01T07:03:58.173Z,93120.28
2022-11-01T07:14:04.502Z,93148.59
2022-11-01T07:24:10.794Z,93165.22
2022-11-01T07:34:17.200Z,93214.84
2022-11-01T07:44:46.450Z,93276.66
2022-11-01T07:54:52.828Z,93328.88
2022-11-01T08:04:59.133Z,93419.59
2022-11-01T08:15:06.537Z,93828.28
2022-11-01T08:25:12.825Z,94399.13
2022-11-01T08:35:19.088Z,94747.38
2022-11-01T08:45:25.540Z,94977.34
2022-11-01T08:55:37.205Z,95335.69
2022-11-01T09:05:44.049Z,95395.72
2022-11-01T09:15:50.353Z,95588.28
2022-11-01T09:26:05.044Z,95651.34
2022-11-01T09:36:11.309Z,95704.13
2022-11-01T09:46:18.972Z,95652.44
2022-11-01T09:56:30.614Z,95704.41
2022-11-01T10:06:56.572Z,95734.16
2022-11-01T10:17:16.247Z,95830.47
2022-11-01T10:28:03.517Z,95950.91
2022-11-01T10:49:05.444Z,95942.91
2022-11-01T10:59:37.625Z,96018.72
2022-11-01T11:09:44.235Z,96001.31
2022-11-01T11:19:53.366Z,96086.75
2022-11-01T11:30:02.928Z,95972.06
2022-11-01T11:40:14.240Z,95890.53
2022-11-01T11:50:20.376Z,96078.38
2022-11-01T12:00:28.523Z,96244.06
2022-11-01T12:10:40.297Z,96353.53
2022-11-01T12:20:51.769Z,96507.72
2022-11-01T12:31:02.007Z,96541.78
2022-11-01T12:41:25.461Z,96581.44
2022-11-01T12:51:36.385Z,96617.16
2022-11-01T13:01:54.043Z,96605.53
2022-11-01T13:12:18.531Z,96609.59
2022-11-01T13:22:35.720Z,96607.28
2022-11-01T13:33:05.815Z,96634.16
2022-11-01T13:43:21.045Z,96641.59
2022-11-01T13:53:31.357Z,96602.75
2022-11-01T14:03:38.098Z,96581.75
2022-11-01T14:13:48.854Z,96519.16
2022-11-01T14:24:02.986Z,96493.09
2022-11-01T14:34:11.520Z,96425.44
2022-11-01T14:44:27.084Z,96345.06
2022-11-01T14:54:43.434Z,96294.59
2022-11-01T15:04:51.424Z,96264.50
2022-11-01T15:14:58.661Z,96264.28
2022-11-01T15:25:06.742Z,96247.47
2022-11-01T15:35:25.445Z,96241.88
2022-11-01T15:45:35.194Z,96216.75
2022-11-01T15:55:46.225Z,96205.00
2022-11-01T16:05:59.480Z,96209.59
2022-11-01T16:16:07.146Z,96174.53
2022-11-01T16:26:13.550Z,96140.66
2022-11-01T16:36:19.705Z,96078.81
2022-11-01T16:46:27.744Z,96058.41
2022-11-01T16:56:37.349Z,96012.56
2022-11-01T17:06:44.087Z,95979.59
2022-11-01T17:16:52.067Z,95929.63
2022-11-01T17:27:01.257Z,95815.09
2022-11-01T17:37:07.668Z,95810.16
2022-11-01T17:47:17.010Z,95783.16
2022-11-01T17:57:23.283Z,95744.97
2022-11-01T18:07:53.978Z,95713.19
2022-11-01T18:18:16.763Z,95673.94
2022-11-01T18:28:27.512Z,95277.09
2022-11-01T18:38:38.737Z,95264.19
2022-11-01T18:48:45.733Z,95245.94
2022-11-01T18:58:53.555Z,95242.12
2022-11-01T19:09:01.480Z,95209.72
2022-11-01T19:19:15.549Z,95168.63
2022-11-01T19:29:27.563Z,95139.22
2022-11-01T19:39:41.719Z,95123.50
2022-11-01T19:49:48.037Z,95108.78
2022-11-01T19:59:55.037Z,95072.50
2022-11-01T20:10:02.129Z,95024.56
2022-11-01T20:20:08.961Z,94986.59
2022-11-01T20:30:17.252Z,94956.22
2022-11-01T20:40:26.269Z,94949.06
2022-11-01T20:50:32.548Z,94936.62
2022-11-01T21:00:39.193Z,94912.38
2022-11-01T21:10:45.536Z,94904.94
2022-11-01T21:20:52.777Z,94890.56
2022-11-01T21:31:07.728Z,94889.16
2022-11-01T21:41:25.316Z,94877.53
2022-11-01T21:51:33.673Z,94899.25
2022-11-01T22:01:42.477Z,94907.22
2022-11-01T22:11:48.846Z,94953.09
2022-11-01T22:21:55.136Z,94960.53
2022-11-01T22:32:01.441Z,94983.66
2022-11-01T22:42:13.310Z,94987.66
2022-11-01T22:52:36.653Z,94972.38
2022-11-01T23:02:43.598Z,94934.03
2022-11-01T23:13:10.480Z,94918.94
2022-11-01T23:23:19.697Z,94903.28
2022-11-01T23:33:28.903Z,94887.53
2022-11-01T23:43:38.453Z,94878.13
2022-11-01T23:53:45.594Z,94861.09
